createdAt,value
2018-09-23T00:00:19.123Z,12.85
2018-09-23T00:02:47.307Z,12.98
2018-09-23T00:05:15.605Z,12.90
2018-09-23T00:07:43.918Z,12.86
2018-09-23T00:10:12.077Z,12.87
2018-09-23T00:12:40.549Z,12.98
2018-09-23T00:15:09.081Z,12.69
2018-09-23T00:17:37.292Z,12.79
2018-09-23T00:20:05.784Z,12.90
2018-09-23T00:22:34.059Z,12.90
2018-09-23T00:25:02.504Z,12.92
2018-09-23T00:27:32.606Z,12.93
2018-09-23T00:30:01.058Z,12.87
2018-09-23T00:32:29.344Z,12.88
2018-09-23T00:34:57.503Z,12.90
2018-09-23T00:37:25.679Z,12.96
2018-09-23T00:39:53.962Z,12.97
2018-09-23T00:42:22.142Z,12.95
2018-09-23T00:44:50.693Z,12.88
2018-09-23T00:47:18.866Z,12.87
2018-09-23T00:49:47.136Z,12.64
2018-09-23T00:52:15.409Z,12.64
2018-09-23T00:54:43.593Z,12.69
2018-09-23T00:57:11.761Z,12.71
2018-09-23T00:59:39.947Z,12.74
2018-09-23T01:02:08.196Z,12.76
2018-09-23T01:04:36.365Z,12.74
2018-09-23T01:07:04.657Z,12.67
2018-09-23T01:09:32.831Z,12.70
2018-09-23T01:12:01.062Z,12.70
2018-09-23T01:14:29.278Z,12.60
2018-09-23T01:16:57.490Z,12.66
2018-09-23T01:19:25.772Z,12.57
2018-09-23T01:21:53.946Z,12.70
2018-09-23T01:24:22.322Z,12.74
2018-09-23T01:26:50.540Z,12.68
2018-09-23T01:29:18.732Z,12.66
2018-09-23T01:31:46.998Z,12.67
2018-09-23T01:34:15.168Z,12.71
2018-09-23T01:36:43.697Z,12.63
2018-09-23T01:39:11.873Z,12.69
2018-09-23T01:41:40.102Z,12.74
2018-09-23T01:44:08.715Z,12.72
2018-09-23T01:46:36.965Z,12.64
2018-09-23T01:49:05.239Z,12.68
2018-09-23T01:51:33.421Z,12.72
2018-09-23T01:54:01.693Z,12.79
2018-09-23T01:56:29.865Z,12.80
2018-09-23T01:58:58.053Z,12.83
2018-09-23T02:01:26.322Z,12.65
2018-09-23T02:03:54.594Z,12.64
2018-09-23T02:06:22.961Z,12.66
2018-09-23T02:08:51.133Z,12.72
2018-09-23T02:11:19.520Z,12.71
2018-09-23T02:13:48.100Z,12.71
2018-09-23T02:16:16.276Z,12.54
2018-09-23T02:18:44.565Z,12.75
2018-09-23T02:21:12.917Z,12.76
2018-09-23T02:23:41.037Z,12.77
2018-09-23T02:26:09.310Z,12.73
2018-09-23T02:28:37.574Z,12.68
2018-09-23T02:31:05.913Z,12.76
2018-09-23T02:33:34.078Z,12.74
2018-09-23T02:36:02.304Z,12.72
2018-09-23T02:38:30.479Z,12.71
2018-09-23T02:40:58.681Z,12.65
2018-09-23T02:43:28.157Z,12.67
2018-09-23T02:45:56.417Z,12.66
2018-09-23T02:48:24.698Z,12.69
2018-09-23T02:50:52.889Z,12.68
2018-09-23T02:53:21.289Z,12.73
2018-09-23T02:55:49.457Z,12.75
2018-09-23T02:58:17.713Z,12.77
2018-09-23T03:00:45.974Z,12.75
2018-09-23T03:03:14.141Z,12.77
2018-09-23T03:05:42.376Z,12.65
2018-09-23T03:08:10.590Z,12.71
2018-09-23T03:10:38.759Z,12.72
2018-09-23T03:13:07.190Z,12.76
2018-09-23T03:15:35.424Z,12.72
2018-09-23T03:18:04.004Z,12.42
2018-09-23T03:20:32.194Z,12.46
2018-09-23T03:23:00.458Z,12.44
2018-09-23T03:25:28.620Z,12.47
2018-09-23T03:27:56.814Z,12.45
2018-09-23T03:30:25.009Z,12.46
2018-09-23T03:32:53.482Z,12.39
2018-09-23T03:35:21.676Z,12.38
2018-09-23T03:37:49.848Z,12.34
2018-09-23T03:40:18.662Z,12.42
2018-09-23T03:42:47.365Z,12.42
2018-09-23T03:45:15.556Z,12.35
2018-09-23T03:47:43.726Z,12.43
2018-09-23T03:50:12.053Z,12.37
2018-09-23T03:52:40.282Z,12.30
2018-09-23T03:55:08.452Z,12.37
2018-09-23T03:57:36.641Z,12.43
2018-09-23T04:00:05.097Z,12.29
2018-09-23T04:02:33.590Z,12.26
2018-09-23T04:05:01.774Z,12.27
2018-09-23T04:07:30.056Z,12.36
2018-09-23T04:09:58.247Z,12.36
2018-09-23T04:12:26.460Z,12.38
2018-09-23T04:14:54.630Z,12.46
2018-09-23T04:17:22.815Z,12.43
2018-09-23T04:19:51.016Z,12.48
2018-09-23T04:22:19.194Z,12.46
2018-09-23T04:24:47.365Z,12.34
2018-09-23T04:27:16.555Z,12.54
2018-09-23T04:29:44.765Z,12.45
2018-09-23T04:32:13.017Z,12.48
2018-09-23T04:34:41.196Z,12.53
2018-09-23T04:37:09.367Z,12.47
2018-09-23T04:39:37.527Z,12.47
2018-09-23T04:42:05.840Z,12.36
2018-09-23T04:44:34.038Z,12.41
2018-09-23T04:47:02.202Z,12.44
2018-09-23T04:49:30.390Z,12.39
2018-09-23T04:51:58.606Z,12.38
2018-09-23T04:54:26.839Z,12.50
2018-09-23T04:56:55.010Z,12.52
2018-09-23T04:59:23.246Z,12.40
2018-09-23T05:01:51.430Z,12.56
2018-09-23T05:04:19.678Z,12.51
2018-09-23T05:06:47.853Z,12.50
2018-09-23T05:09:16.032Z,12.45
2018-09-23T05:11:44.329Z,12.39
2018-09-23T05:14:12.485Z,12.55
2018-09-23T05:16:40.659Z,12.38
2018-09-23T05:19:08.837Z,12.55
2018-09-23T05:21:37.017Z,12.36
2018-09-23T05:24:05.183Z,12.49
2018-09-23T05:26:33.750Z,12.44
2018-09-23T05:29:01.973Z,12.57
2018-09-23T05:31:30.159Z,12.61
2018-09-23T05:33:58.348Z,12.54
2018-09-23T05:36:26.565Z,12.57
2018-09-23T05:38:54.829Z,12.59
2018-09-23T05:41:23.013Z,12.63
2018-09-23T05:43:51.307Z,12.86
2018-09-23T05:46:19.766Z,12.61
2018-09-23T05:48:47.929Z,12.87
2018-09-23T05:51:16.421Z,12.97
2018-09-23T05:53:44.755Z,12.72
2018-09-23T05:56:13.124Z,12.69
2018-09-23T05:58:41.829Z,12.81
2018-09-23T06:01:10.048Z,12.68
2018-09-23T06:03:38.328Z,12.78
2018-09-23T06:06:06.606Z,12.69
2018-09-23T06:08:34.909Z,12.61
2018-09-23T06:11:03.233Z,12.71
2018-09-23T06:13:31.358Z,12.55
2018-09-23T06:15:59.617Z,12.68
2018-09-23T06:18:27.863Z,12.78
2018-09-23T06:20:55.996Z,12.95
2018-09-23T06:23:24.469Z,12.81
2018-09-23T06:25:52.657Z,12.81
2018-09-23T06:28:21.129Z,12.77
2018-09-23T06:30:49.299Z,12.74
2018-09-23T06:33:17.537Z,12.56
2018-09-23T06:35:45.807Z,12.65
2018-09-23T06:38:13.978Z,12.67
2018-09-23T06:40:42.161Z,12.58
2018-09-23T06:43:10.449Z,12.56
2018-09-23T06:45:38.757Z,12.49
2018-09-23T06:48:07.096Z,12.62
2018-09-23T06:50:35.275Z,12.58
2018-09-23T06:53:03.805Z,12.69
2018-09-23T06:55:31.991Z,12.56
2018-09-23T06:58:00.187Z,12.77
2018-09-23T07:00:28.428Z,12.78
2018-09-23T07:02:56.601Z,12.80
2018-09-23T07:05:24.769Z,12.70
2018-09-23T07:07:53.313Z,12.78
2018-09-23T07:10:21.668Z,12.64
2018-09-23T07:12:50.180Z,12.76
2018-09-23T07:15:18.351Z,12.73
2018-09-23T07:17:46.626Z,12.79
2018-09-23T07:20:14.805Z,12.69
2018-09-23T07:22:43.110Z,12.78
2018-09-23T07:25:11.405Z,12.86
2018-09-23T07:27:39.923Z,12.92
2018-09-23T07:30:08.165Z,12.79
2018-09-23T07:32:36.401Z,12.89
2018-09-23T07:35:04.585Z,13.03
2018-09-23T07:37:32.817Z,12.97
2018-09-23T07:40:01.321Z,12.77
2018-09-23T07:42:29.417Z,12.85
2018-09-23T07:44:57.875Z,12.91
2018-09-23T07:47:26.141Z,13.02
2018-09-23T07:49:54.368Z,13.28
2018-09-23T07:52:22.647Z,13.41
2018-09-23T07:54:50.841Z,13.31
2018-09-23T07:57:19.038Z,13.33
2018-09-23T07:59:47.220Z,13.25
2018-09-23T08:02:15.908Z,13.17
2018-09-23T08:04:44.088Z,13.17
2018-09-23T08:07:12.348Z,13.20
2018-09-23T08:09:40.566Z,13.09
2018-09-23T08:12:08.738Z,13.10
2018-09-23T08:14:37.297Z,13.12
2018-09-23T08:17:05.307Z,13.23
2018-09-23T08:19:33.611Z,13.02
2018-09-23T08:22:01.801Z,12.95
2018-09-23T08:24:29.990Z,12.98
2018-09-23T08:26:58.238Z,13.27
2018-09-23T08:29:26.410Z,13.10
2018-09-23T08:31:54.601Z,13.34
2018-09-23T08:34:23.078Z,13.26
2018-09-23T08:36:51.250Z,13.34
2018-09-23T08:39:19.467Z,13.33
2018-09-23T08:41:47.637Z,13.36
2018-09-23T08:44:15.809Z,13.27
2018-09-23T08:46:44.085Z,13.19
2018-09-23T08:49:12.325Z,13.35
2018-09-23T08:51:40.642Z,13.44
2018-09-23T08:54:08.797Z,13.49
2018-09-23T08:56:36.995Z,13.43
2018-09-23T08:59:05.176Z,13.38
2018-09-23T09:01:33.357Z,13.52
2018-09-23T09:04:01.536Z,13.42
2018-09-23T09:06:29.734Z,13.39
2018-09-23T09:08:58.041Z,13.56
2018-09-23T09:11:26.250Z,13.62
2018-09-23T09:13:54.432Z,13.48
2018-09-23T09:16:22.663Z,13.72
2018-09-23T09:18:50.914Z,13.75
2018-09-23T09:21:19.092Z,14.01
2018-09-23T09:23:47.391Z,13.85
2018-09-23T09:26:15.581Z,13.79
2018-09-23T09:28:43.786Z,13.98
2018-09-23T09:31:11.972Z,14.01
2018-09-23T09:33:40.328Z,14.11
2018-09-23T09:36:08.522Z,14.30
2018-09-23T09:38:36.891Z,14.52
2018-09-23T09:41:05.190Z,14.55
2018-09-23T09:43:33.497Z,14.78
2018-09-23T09:46:01.766Z,14.72
2018-09-23T09:48:29.943Z,15.07
2018-09-23T09:50:58.249Z,15.32
2018-09-23T09:53:26.518Z,15.40
2018-09-23T09:55:54.692Z,15.68
2018-09-23T09:58:22.873Z,15.54
2018-09-23T10:00:51.125Z,15.59
2018-09-23T10:03:19.323Z,15.50
2018-09-23T10:05:47.564Z,15.54
2018-09-23T10:08:15.853Z,15.99
2018-09-23T10:10:44.118Z,15.87
2018-09-23T10:13:12.389Z,15.82
2018-09-23T10:15:40.797Z,15.66
2018-09-23T10:18:08.981Z,15.63
2018-09-23T10:20:37.368Z,15.60
2018-09-23T10:23:05.575Z,15.74
2018-09-23T10:25:33.873Z,15.54
2018-09-23T10:28:02.099Z,15.90
2018-09-23T10:30:30.299Z,16.43
2018-09-23T10:32:58.500Z,16.25
2018-09-23T10:35:26.703Z,16.56
2018-09-23T10:37:54.961Z,16.54
2018-09-23T10:40:23.218Z,17.45
2018-09-23T10:42:51.512Z,19.16
2018-09-23T10:45:19.790Z,18.85
2018-09-23T10:47:48.050Z,18.46
2018-09-23T10:50:16.276Z,17.69
2018-09-23T10:52:44.490Z,17.17
2018-09-23T10:55:12.680Z,16.92
2018-09-23T10:57:40.884Z,17.61
2018-09-23T11:00:09.249Z,18.07
2018-09-23T11:02:37.444Z,18.85
2018-09-23T11:05:05.689Z,18.53
2018-09-23T11:07:34.140Z,17.71
2018-09-23T11:10:02.289Z,17.58
2018-09-23T11:12:30.470Z,17.90
2018-09-23T11:14:58.693Z,18.33
2018-09-23T11:17:26.958Z,18.30
2018-09-23T11:19:55.238Z,18.29
2018-09-23T11:22:23.525Z,17.73
2018-09-23T11:24:51.731Z,17.41
2018-09-23T11:27:20.392Z,17.05
2018-09-23T11:29:48.598Z,16.81
2018-09-23T11:32:16.800Z,16.56
2018-09-23T11:34:45.005Z,16.84
2018-09-23T11:37:13.282Z,16.63
2018-09-23T11:39:41.466Z,16.60
2018-09-23T11:42:09.666Z,16.74
2018-09-23T11:44:37.878Z,16.73
2018-09-23T11:47:06.430Z,16.72
2018-09-23T11:49:34.642Z,16.67
2018-09-23T11:52:02.843Z,16.68
2018-09-23T11:54:31.112Z,16.72
2018-09-23T11:56:59.376Z,16.66
2018-09-23T11:59:27.590Z,16.94
2018-09-23T12:01:57.813Z,16.66
2018-09-23T12:04:26.070Z,16.48
2018-09-23T12:06:54.181Z,16.57
2018-09-23T12:09:22.357Z,16.59
2018-09-23T12:11:50.529Z,16.72
2018-09-23T12:14:18.749Z,18.13
2018-09-23T12:16:46.917Z,18.90
2018-09-23T12:19:15.191Z,19.10
2018-09-23T12:21:43.411Z,18.21
2018-09-23T12:24:11.665Z,17.99
2018-09-23T12:26:39.861Z,17.89
2018-09-23T12:29:08.084Z,18.03
2018-09-23T12:31:36.447Z,18.09
2018-09-23T12:34:04.641Z,18.29
2018-09-23T12:36:32.937Z,18.17
2018-09-23T12:39:01.189Z,18.70
2018-09-23T12:41:29.382Z,23.94
2018-09-23T12:43:57.584Z,24.69
2018-09-23T12:46:25.771Z,24.14
2018-09-23T12:48:53.974Z,26.27
2018-09-23T12:51:22.282Z,28.53
2018-09-23T12:53:50.582Z,28.84
2018-09-23T12:56:18.784Z,28.06
2018-09-23T12:58:46.994Z,26.12
2018-09-23T13:01:15.207Z,25.06
2018-09-23T13:03:43.442Z,23.63
2018-09-23T13:06:11.699Z,22.54
2018-09-23T13:08:39.976Z,22.37
2018-09-23T13:11:08.261Z,26.47
2018-09-23T13:13:36.473Z,31.84
2018-09-23T13:16:04.733Z,28.91
2018-09-23T13:18:32.958Z,28.39
2018-09-23T13:21:01.127Z,25.00
2018-09-23T13:23:29.316Z,22.31
2018-09-23T13:25:57.501Z,22.55
2018-09-23T13:28:25.715Z,21.97
2018-09-23T13:30:53.889Z,22.80
2018-09-23T13:33:22.069Z,22.81
2018-09-23T13:35:50.313Z,21.90
2018-09-23T13:38:18.494Z,20.96
2018-09-23T13:40:46.736Z,20.28
2018-09-23T13:43:14.942Z,19.93
2018-09-23T13:45:43.205Z,19.54
2018-09-23T13:48:11.399Z,19.66
2018-09-23T13:50:39.587Z,19.95
2018-09-23T13:53:08.024Z,20.15
2018-09-23T13:55:36.200Z,20.11
2018-09-23T13:58:04.602Z,20.59
2018-09-23T14:00:32.811Z,20.95
2018-09-23T14:03:00.986Z,21.48
2018-09-23T14:05:29.194Z,21.58
2018-09-23T14:07:57.393Z,20.97
2018-09-23T14:10:25.585Z,21.25
2018-09-23T14:12:53.983Z,21.03
2018-09-23T14:15:22.149Z,21.08
2018-09-23T14:17:50.567Z,21.98
2018-09-23T14:20:18.777Z,20.93
2018-09-23T14:22:47.061Z,21.08
2018-09-23T14:25:15.320Z,22.57
2018-09-23T14:27:43.534Z,22.50
2018-09-23T14:30:11.796Z,20.71
2018-09-23T14:32:39.984Z,20.52
2018-09-23T14:35:08.234Z,20.41
2018-09-23T14:37:36.482Z,20.18
2018-09-23T14:40:04.667Z,20.24
2018-09-23T14:42:33.004Z,20.07
2018-09-23T14:45:01.171Z,20.14
2018-09-23T14:47:29.351Z,19.91
2018-09-23T14:49:57.674Z,20.03
2018-09-23T14:52:25.961Z,20.08
2018-09-23T14:54:54.337Z,19.66
2018-09-23T14:57:22.497Z,20.43
2018-09-23T14:59:54.189Z,20.02
2018-09-23T15:02:18.863Z,20.81
2018-09-23T15:04:47.053Z,20.59
2018-09-23T15:07:15.454Z,20.68
2018-09-23T15:09:43.690Z,20.58
2018-09-23T15:12:11.984Z,20.62
2018-09-23T15:14:40.164Z,20.27
2018-09-23T15:17:08.394Z,19.96
2018-09-23T15:19:36.688Z,20.19
2018-09-23T15:22:05.422Z,20.18
2018-09-23T15:24:33.597Z,20.23
2018-09-23T15:27:01.845Z,20.52
2018-09-23T15:29:30.134Z,20.63
2018-09-23T15:31:58.322Z,20.60
2018-09-23T15:34:26.527Z,21.40
2018-09-23T15:36:54.700Z,22.34
2018-09-23T15:39:22.878Z,21.60
2018-09-23T15:41:51.070Z,21.62
2018-09-23T15:44:19.333Z,22.04
2018-09-23T15:46:48.336Z,22.12
2018-09-23T15:49:16.562Z,21.96
2018-09-23T15:51:44.787Z,22.01
2018-09-23T15:54:12.964Z,21.74
2018-09-23T15:56:41.238Z,21.59
2018-09-23T15:59:09.425Z,22.31
2018-09-23T16:01:37.722Z,23.51
2018-09-23T16:04:06.066Z,23.61
2018-09-23T16:06:34.239Z,23.55
2018-09-23T16:09:02.424Z,23.58
2018-09-23T16:11:33.478Z,24.53
2018-09-23T16:14:01.645Z,24.18
2018-09-23T16:16:29.909Z,24.24
2018-09-23T16:18:58.158Z,23.97
2018-09-23T16:21:26.333Z,24.05
2018-09-23T16:23:54.572Z,23.93
2018-09-23T16:26:22.807Z,23.88
2018-09-23T16:28:50.997Z,23.84
2018-09-23T16:31:19.270Z,23.74
2018-09-23T16:33:47.440Z,23.61
2018-09-23T16:36:15.950Z,23.60
2018-09-23T16:38:44.222Z,23.59
2018-09-23T16:41:12.414Z,23.43
2018-09-23T16:43:40.624Z,23.45
2018-09-23T16:46:08.942Z,23.28
2018-09-23T16:48:37.102Z,23.14
2018-09-23T16:51:05.394Z,23.08
2018-09-23T16:53:33.590Z,22.95
2018-09-23T16:56:01.802Z,22.85
2018-09-23T16:58:30.000Z,22.88
2018-09-23T17:00:58.238Z,22.87
2018-09-23T17:03:26.421Z,22.92
2018-09-23T17:05:54.600Z,23.03
2018-09-23T17:08:22.886Z,23.07
2018-09-23T17:10:51.078Z,23.08
2018-09-23T17:13:19.566Z,23.19
2018-09-23T17:15:47.768Z,23.17
2018-09-23T17:18:15.964Z,23.26
2018-09-23T17:20:44.248Z,23.36
2018-09-23T17:23:12.441Z,23.29
2018-09-23T17:25:40.661Z,23.43
2018-09-23T17:28:08.921Z,23.15
2018-09-23T17:30:37.221Z,23.58
2018-09-23T17:33:05.425Z,23.57
2018-09-23T17:35:33.621Z,23.82
2018-09-23T17:38:01.878Z,23.74
2018-09-23T17:40:30.058Z,23.77
2018-09-23T17:42:58.237Z,24.02
2018-09-23T17:45:26.502Z,23.86
2018-09-23T17:47:54.770Z,23.86
2018-09-23T17:50:22.949Z,23.92
2018-09-23T17:52:51.345Z,23.92
2018-09-23T17:55:19.759Z,23.91
2018-09-23T17:57:47.968Z,24.14
2018-09-23T18:00:16.152Z,23.92
2018-09-23T18:02:44.332Z,23.91
2018-09-23T18:05:12.818Z,23.71
2018-09-23T18:07:41.090Z,21.36
2018-09-23T18:10:09.278Z,18.90
2018-09-23T18:12:37.456Z,18.58
2018-09-23T18:15:05.941Z,15.88
2018-09-23T18:17:34.164Z,15.53
2018-09-23T18:20:02.462Z,16.63
2018-09-23T18:22:30.761Z,16.13
2018-09-23T18:24:59.017Z,16.16
2018-09-23T18:27:28.538Z,15.94
2018-09-23T18:29:56.745Z,15.98
2018-09-23T18:32:24.909Z,16.16
2018-09-23T18:34:53.097Z,16.32
2018-09-23T18:37:21.416Z,16.50
2018-09-23T18:39:49.591Z,16.41
2018-09-23T18:42:17.817Z,16.26
2018-09-23T18:44:46.061Z,16.19
2018-09-23T18:47:14.411Z,16.11
2018-09-23T18:49:42.786Z,16.17
2018-09-23T18:52:11.089Z,16.24
2018-09-23T18:54:44.565Z,15.98
2018-09-23T18:57:12.777Z,16.18
2018-09-23T18:59:40.977Z,16.24
2018-09-23T19:02:09.231Z,16.29
2018-09-23T19:04:37.531Z,16.40
2018-09-23T19:07:05.803Z,16.53
2018-09-23T19:09:34.031Z,16.28
2018-09-23T19:12:02.455Z,16.41
2018-09-23T19:14:30.726Z,16.64
2018-09-23T19:16:58.972Z,16.55
2018-09-23T19:19:32.516Z,16.17
2018-09-23T19:22:00.704Z,-146.33
2018-09-23T19:25:13.628Z,-146.33
2018-09-23T19:54:46.017Z,-146.33
2018-09-23T19:58:07.136Z,40.22
2018-09-23T20:05:33.399Z,-146.33
2018-09-23T20:30:10.835Z,-146.33
2018-09-23T20:32:41.497Z,-146.33
2018-09-23T20:37:38.582Z,-146.33
2018-09-23T20:45:02.165Z,16.40
2018-09-23T20:50:22.396Z,20.06
2018-09-23T21:08:37.797Z,-146.33
2018-09-23T21:36:46.082Z,-146.33
2018-09-23T21:39:14.438Z,-146.33
2018-09-23T23:05:18.802Z,30.46
2018-09-23T23:07:47.344Z,-146.33
